Time;durP1;ratioP1;P1;durP2;ratioP2;P2;SDS_P1;SDS_P2;PMS_P1;PMS_P2;Temp;Humidity;BMP_temperature;BMP_pressure;BME280_temperature;BME280_humidity;BME280_pressure;Samples;Min_cycle;Max_cycle;Signal;HPM_P1;HPM_P2
2021/11/09 00:01:09;;;;;;;22.37;12.27;;;;;;;2.30;86.32;101154.48;1434010;91;21788;-89
2021/11/09 00:03:59;;;;;;;24.67;13.33;;;;;;;2.31;86.29;101164.50;1436675;91;21751;-89
2021/11/09 00:06:23;;;;;;;16.63;11.43;;;;;;;2.25;86.06;101152.59;1407586;91;21670;-89
2021/11/09 00:08:57;;;;;;;20.83;11.90;;;;;;;2.25;86.06;101152.59;1413010;91;21885;-89
2021/11/09 00:11:26;;;;;;;20.93;12.63;;;;;;;2.29;86.29;101153.27;1428765;91;21920;-88
2021/11/09 00:13:54;;;;;;;17.63;11.90;;;;;;;2.25;85.91;101159.12;1438189;90;22280;-89
2021/11/09 00:16:22;;;;;;;19.53;12.07;;;;;;;2.17;85.78;101157.34;1430602;90;21976;-88
2021/11/09 00:18:49;;;;;;;28.23;15.37;;;;;;;2.15;85.86;101154.80;1432625;91;22773;-88
2021/11/09 00:21:18;;;;;;;20.20;13.77;;;;;;;2.14;86.29;101165.33;1428175;90;22767;-89
2021/11/09 00:23:46;;;;;;;14.93;11.70;;;;;;;2.13;86.88;101172.33;1425622;90;21873;-89
2021/11/09 00:26:16;;;;;;;20.53;13.37;;;;;;;2.13;86.93;101161.88;1433277;91;21745;-88
2021/11/09 00:28:44;;;;;;;26.53;12.90;;;;;;;2.15;87.05;101167.85;1433033;91;21844;-89
2021/11/09 00:31:11;;;;;;;23.73;13.27;;;;;;;2.15;86.90;101171.77;1429252;90;21764;-88
2021/11/09 00:33:40;;;;;;;16.23;11.10;;;;;;;2.16;86.57;101180.01;1429672;91;21894;-89
2021/11/09 00:36:07;;;;;;;15.87;12.77;;;;;;;2.12;86.25;101178.45;1432803;91;21777;-88
2021/11/09 00:38:35;;;;;;;17.50;11.00;;;;;;;2.12;86.39;101186.28;1430701;91;21774;-88
2021/11/09 00:41:05;;;;;;;22.97;12.47;;;;;;;2.16;86.52;101189.62;1439971;90;21632;-90
2021/11/09 00:43:33;;;;;;;16.00;12.83;;;;;;;2.15;86.23;101193.97;1441883;89;21755;-88
2021/11/09 00:46:00;;;;;;;17.33;13.03;;;;;;;2.09;85.95;101191.66;1455002;89;22523;-87
2021/11/09 00:48:27;;;;;;;22.13;14.37;;;;;;;2.10;86.18;101193.80;1454611;89;21798;-88
2021/11/09 00:50:55;;;;;;;20.43;13.50;;;;;;;2.08;86.36;101192.59;1425527;91;22784;-88
2021/11/09 00:53:22;;;;;;;20.63;13.77;;;;;;;2.07;86.34;101190.88;1441027;89;22732;-88
2021/11/09 00:55:50;;;;;;;16.77;12.57;;;;;;;2.08;86.56;101192.59;1442114;90;21778;-88
2021/11/09 00:58:17;;;;;;;20.80;11.13;;;;;;;2.10;86.39;101196.41;1435079;90;21779;-88
2021/11/09 01:00:45;;;;;;;18.63;11.50;;;;;;;2.09;86.33;101190.81;1432516;90;21633;-88
2021/11/09 01:03:13;;;;;;;17.63;13.33;;;;;;;2.12;86.41;101194.13;1433873;90;21768;-88
2021/11/09 01:05:41;;;;;;;15.80;11.47;;;;;;;2.12;86.02;101192.81;1433549;91;21939;-88
2021/11/09 01:08:13;;;;;;;15.93;12.57;;;;;;;2.10;85.85;101182.05;1422134;91;21804;-89
2021/11/09 01:10:45;;;;;;;17.50;12.10;;;;;;;2.07;86.02;101189.57;1440004;90;21728;-87
2021/11/09 01:13:15;;;;;;;15.10;11.37;;;;;;;2.02;85.86;101198.11;1445337;90;22682;-88
2021/11/09 01:15:49;;;;;;;19.23;13.10;;;;;;;1.98;86.42;101203.92;1433219;91;21764;-86
2021/11/09 01:18:20;;;;;;;15.87;11.97;;;;;;;1.96;86.30;101201.02;1431280;90;21731;-87
2021/11/09 01:20:48;;;;;;;18.85;12.73;;;;;;;1.92;86.62;101198.99;1437529;91;21781;-87
2021/11/09 01:23:16;;;;;;;26.33;13.77;;;;;;;1.78;86.61;101192.28;1415606;90;21365;-87
2021/11/09 01:25:44;;;;;;;17.97;12.90;;;;;;;1.78;86.61;101192.28;1402675;91;21759;-86
2021/11/09 01:28:11;;;;;;;19.97;14.30;;;;;;;1.80;87.33;101195.20;1420348;91;21645;-87
2021/11/09 01:30:41;;;;;;;19.13;12.23;;;;;;;1.87;87.37;101199.70;1415847;92;21613;-88
2021/11/09 01:33:08;;;;;;;22.33;12.83;;;;;;;1.85;87.52;101198.08;1414417;92;22646;-88
2021/11/09 01:35:36;;;;;;;24.43;14.23;;;;;;;1.85;87.17;101198.08;1419929;90;23084;-89
2021/11/09 01:38:03;;;;;;;16.70;12.20;;;;;;;1.86;88.01;101194.53;1416147;92;21678;-90
2021/11/09 01:40:33;;;;;;;17.97;12.73;;;;;;;1.94;87.96;101195.02;1398922;92;21731;-90
2021/11/09 01:43:01;;;;;;;18.97;13.50;;;;;;;1.98;87.86;101188.72;1419789;92;21660;-87
2021/11/09 01:45:29;;;;;;;18.03;13.33;;;;;;;2.04;87.98;101185.80;1412985;92;21740;-88
2021/11/09 01:47:57;;;;;;;20.33;13.03;;;;;;;2.09;88.20;101187.74;1409725;92;21642;-88
2021/11/09 01:50:30;;;;;;;17.33;11.83;;;;;;;2.16;88.20;101187.00;1419187;92;22899;-88
2021/11/09 01:52:58;;;;;;;27.70;14.47;;;;;;;2.21;88.22;101186.30;1418117;91;21818;-88
2021/11/09 01:55:28;;;;;;;24.47;15.53;;;;;;;2.24;88.21;101188.75;1420193;91;21847;-88
2021/11/09 01:57:58;;;;;;;24.93;15.90;;;;;;;2.28;88.12;101181.17;1430949;91;22749;-89
2021/11/09 02:00:33;;;;;;;22.10;15.17;;;;;;;2.36;88.04;101179.46;1420504;92;21698;-89
2021/11/09 02:03:00;;;;;;;21.23;14.97;;;;;;;2.39;88.03;101184.56;1416525;91;21570;-88
2021/11/09 02:05:28;;;;;;;26.10;16.57;;;;;;;2.40;87.54;101185.77;1438225;90;21792;-88
2021/11/09 02:08:00;;;;;;;33.10;20.80;;;;;;;2.40;87.51;101185.77;1435576;90;21672;-88
2021/11/09 02:10:32;;;;;;;34.17;18.07;;;;;;;2.45;87.58;101185.55;1437602;90;21911;-88
2021/11/09 02:13:00;;;;;;;36.70;18.40;;;;;;;2.45;87.58;101185.55;1428848;91;24020;-88
2021/11/09 02:15:31;;;;;;;33.27;19.90;;;;;;;2.47;87.97;101189.78;1420703;92;21664;-89
2021/11/09 02:17:59;;;;;;;30.45;20.00;;;;;;;2.48;87.82;101195.85;1429579;91;22698;-89
2021/11/09 02:20:29;;;;;;;44.50;20.47;;;;;;;2.51;88.03;101206.15;1415427;91;21379;-88
2021/11/09 02:22:58;;;;;;;48.17;21.40;;;;;;;2.54;87.96;101212.99;1418727;92;21696;-89
2021/11/09 02:25:29;;;;;;;42.13;18.80;;;;;;;2.56;87.90;101206.77;1415039;92;21975;-89
2021/11/09 02:27:57;;;;;;;35.52;17.55;;;;;;;2.56;87.88;101212.00;1400179;92;21951;-90
2021/11/09 02:30:27;;;;;;;27.87;12.73;;;;;;;2.52;87.70;101207.83;1416335;92;22539;-89
2021/11/09 02:32:56;;;;;;;22.23;13.07;;;;;;;2.52;87.81;101205.22;1400924;91;21945;-90
2021/11/09 02:35:24;;;;;;;17.57;12.23;;;;;;;2.52;87.81;101205.22;1418569;90;22558;-90
2021/11/09 02:37:54;;;;;;;23.10;12.43;;;;;;;2.52;87.58;101210.44;1437488;90;21775;-90
2021/11/09 02:40:22;;;;;;;19.13;12.80;;;;;;;2.45;87.24;101212.99;1433377;90;21914;-90
2021/11/09 02:42:55;;;;;;;18.00;13.20;;;;;;;2.40;87.59;101219.73;1415675;92;21688;-90
2021/11/09 02:48:33;;;;;;;20.00;14.17;;;;;;;2.35;87.36;101223.50;1410983;92;21710;-90
2021/11/09 02:51:10;;;;;;;18.60;12.90;;;;;;;2.20;86.62;101222.48;1411157;92;21926;-90
2021/11/09 02:56:13;;;;;;;18.63;12.70;;;;;;;1.93;86.69;101236.41;1405255;93;21857;-88
2021/11/09 03:01:18;;;;;;;20.27;13.30;;;;;;;1.94;86.90;101238.09;1410367;93;21816;-90
2021/11/09 03:03:51;;;;;;;15.45;12.25;;;;;;;1.91;87.11;101235.63;1407384;93;21858;-90
2021/11/09 03:06:31;;;;;;;16.50;12.10;;;;;;;1.81;86.59;101233.89;1391445;93;21447;-89
2021/11/09 03:08:56;;;;;;;;;;;;;;;1.68;86.54;101241.46;1404251;93;21646;-89
2021/11/09 03:11:21;;;;;;;15.77;11.53;;;;;;;1.54;86.90;101239.94;1404724;93;20413;-89
2021/11/09 03:13:49;;;;;;;15.40;11.77;;;;;;;1.25;87.10;101260.34;1411168;92;22220;-89
2021/11/09 03:16:17;;;;;;;15.40;12.07;;;;;;;1.13;86.56;101260.89;1409740;92;22599;-90
2021/11/09 03:18:50;;;;;;;17.60;11.57;;;;;;;1.06;86.98;101265.97;1403204;93;21677;-89
2021/11/09 03:40:28;;;;;;;15.97;12.97;;;;;;;1.01;87.86;101292.72;1424772;92;23003;-91
2021/11/09 03:45:31;;;;;;;14.80;11.90;;;;;;;0.88;88.78;101294.52;1409941;90;21484;-92
2021/11/09 03:48:07;;;;;;;17.53;12.83;;;;;;;0.83;88.46;101304.28;1405552;92;21567;-92
2021/11/09 03:50:36;;;;;;;16.47;12.87;;;;;;;0.71;88.36;101312.61;1411566;92;21874;-92
2021/11/09 03:53:17;;;;;;;18.48;13.30;;;;;;;0.67;88.68;101317.11;1407236;92;21626;-92
2021/11/09 03:58:25;;;;;;;18.40;13.23;;;;;;;0.78;89.53;101311.47;1412696;92;21745;-92
2021/11/09 04:03:37;;;;;;;16.10;12.80;;;;;;;0.84;88.79;101307.76;1412438;93;21498;-94
2021/11/09 04:05:56;;;;;;;15.73;12.90;;;;;;;0.86;88.48;101318.52;1405356;93;22803;-93
2021/11/09 04:08:36;;;;;;;15.83;12.87;;;;;;;0.91;88.63;101311.78;1388207;93;22516;-92
2021/11/09 04:11:15;;;;;;;15.77;12.53;;;;;;;0.98;89.38;101316.28;1406981;92;21566;-91
2021/11/09 04:19:09;;;;;;;14.87;13.10;;;;;;;1.15;88.97;101317.72;1420811;93;21680;-90
2021/11/09 05:11:42;;;;;;;14.70;12.90;;;;;;;1.04;87.53;101343.42;1377289;95;21928;-89
2021/11/09 05:14:13;;;;;;;17.00;12.63;;;;;;;1.05;87.79;101353.77;1372998;95;21944;-90
2021/11/09 05:16:42;;;;;;;15.43;12.37;;;;;;;1.03;87.84;101352.13;1372813;95;22620;-90
2021/11/09 05:19:11;;;;;;;16.80;13.20;;;;;;;0.94;87.71;101365.55;1369369;95;21575;-89
2021/11/09 05:21:40;;;;;;;19.80;14.47;;;;;;;0.87;87.54;101365.81;1373338;95;21826;-89
2021/11/09 05:24:08;;;;;;;16.90;13.57;;;;;;;0.78;87.81;101367.95;1384282;94;21785;-90
2021/11/09 05:26:38;;;;;;;18.63;13.33;;;;;;;0.73;87.93;101368.59;1393122;93;21640;-89
2021/11/09 05:29:06;;;;;;;21.70;13.93;;;;;;;0.70;88.27;101369.55;1395075;93;21665;-89
2021/11/09 05:31:33;;;;;;;15.20;12.60;;;;;;;0.69;88.44;101374.34;1395613;94;21772;-91
2021/11/09 05:34:03;;;;;;;15.93;13.30;;;;;;;0.70;88.38;101378.67;1392798;93;21654;-90
2021/11/09 05:36:37;;;;;;;16.47;13.10;;;;;;;0.69;88.44;101383.47;1391824;93;21518;-89
2021/11/09 05:39:50;;;;;;;17.03;13.30;;;;;;;0.66;88.06;101392.71;1396118;93;22590;-90
2021/11/09 05:41:34;;;;;;;16.17;12.68;;;;;;;0.71;88.09;101392.55;1386356;93;22471;-90
2021/11/09 05:43:59;;;;;;;18.43;13.20;;;;;;;0.76;88.42;101395.82;1392181;93;21426;-89
2021/11/09 05:46:26;;;;;;;16.67;13.13;;;;;;;0.82;88.28;101400.33;1411322;92;21842;-89
2021/11/09 05:48:54;;;;;;;15.40;11.27;;;;;;;0.90;88.09;101412.59;1411912;90;22517;-89
2021/11/09 05:51:21;;;;;;;14.70;12.47;;;;;;;0.95;87.87;101415.03;1403638;93;21683;-89
2021/11/09 05:53:48;;;;;;;15.90;13.60;;;;;;;0.99;87.72;101421.81;1406511;92;21586;-89
2021/11/09 05:56:15;;;;;;;15.27;12.70;;;;;;;1.05;87.68;101425.92;1403217;93;21569;-90
2021/11/09 05:58:45;;;;;;;17.30;14.27;;;;;;;1.10;87.65;101430.50;1406897;93;21610;-90
2021/11/09 06:01:12;;;;;;;22.30;14.73;;;;;;;1.19;87.71;101430.13;1403917;93;22790;-89
2021/11/09 06:03:39;;;;;;;18.43;13.70;;;;;;;1.27;87.58;101437.18;1403359;93;21892;-90
2021/11/09 06:06:07;;;;;;;19.47;15.47;;;;;;;1.34;87.79;101439.91;1389405;93;21530;-90
2021/11/09 06:08:34;;;;;;;17.63;14.30;;;;;;;1.38;87.36;101447.61;1406013;92;21620;-90
2021/11/09 06:11:02;;;;;;;17.83;13.27;;;;;;;1.46;87.44;101449.45;1407253;93;22532;-90
2021/11/09 06:13:29;;;;;;;16.93;13.43;;;;;;;1.59;87.62;101445.42;1387740;93;22345;-91
2021/11/09 06:15:56;;;;;;;33.50;23.53;;;;;;;1.73;87.63;101456.12;1398893;93;23806;-90
2021/11/09 06:18:23;;;;;;;59.97;36.67;;;;;;;1.84;87.55;101461.31;1405561;93;21887;-90
2021/11/09 06:20:51;;;;;;;53.80;34.17;;;;;;;1.99;87.61;101473.73;1407164;92;21901;-88
2021/11/09 06:23:18;;;;;;;50.87;30.63;;;;;;;2.09;87.67;101471.08;1404005;93;21979;-88
2021/11/09 06:25:46;;;;;;;43.97;29.47;;;;;;;2.44;87.83;101491.70;1400019;92;22280;-89
2021/11/09 06:28:17;;;;;;;39.40;24.43;;;;;;;2.44;87.83;101491.70;1408414;92;21933;-89
2021/11/09 06:30:43;;;;;;;37.43;25.63;;;;;;;2.57;87.34;101497.70;1415358;93;21785;-88
2021/11/09 06:33:10;;;;;;;30.60;21.47;;;;;;;2.64;87.17;101496.02;1411021;93;22959;-88
2021/11/09 06:35:37;;;;;;;31.10;20.87;;;;;;;2.81;87.30;101490.48;1411198;93;22055;-89
2021/11/09 06:38:04;;;;;;;30.37;22.70;;;;;;;2.94;86.49;101508.14;1407393;93;22315;-88
2021/11/09 06:40:32;;;;;;;38.30;23.60;;;;;;;2.94;86.49;101508.14;1399622;93;22074;-87
2021/11/09 06:43:00;;;;;;;30.70;21.70;;;;;;;3.08;86.57;101519.27;1403675;93;22271;-88
2021/11/09 06:45:27;;;;;;;36.70;23.77;;;;;;;3.13;85.81;101528.19;1400490;93;23332;-88
2021/11/09 06:47:55;;;;;;;33.70;23.67;;;;;;;3.23;86.33;101531.23;1384496;93;22103;-88
2021/11/09 06:50:23;;;;;;;35.03;24.57;;;;;;;3.26;85.95;101525.38;1379680;94;22088;-89
2021/11/09 06:52:51;;;;;;;34.43;23.00;;;;;;;3.34;85.90;101533.72;1387206;94;22177;-89
2021/11/09 06:55:18;;;;;;;35.53;24.30;;;;;;;3.54;86.46;101541.91;1388883;95;22147;-87
2021/11/09 06:57:46;;;;;;;35.57;23.60;;;;;;;3.71;86.38;101549.38;1386060;95;22177;-89
2021/11/09 07:00:17;;;;;;;37.90;24.63;;;;;;;3.85;86.11;101558.70;1378964;95;22125;-89
2021/11/09 07:02:46;;;;;;;34.43;23.27;;;;;;;4.11;85.76;101565.70;1380034;95;21360;-90
2021/11/09 07:05:13;;;;;;;33.03;21.57;;;;;;;4.11;85.76;101565.70;1386865;94;21405;-88
2021/11/09 07:07:42;;;;;;;28.80;20.37;;;;;;;4.24;85.67;101569.41;1378392;95;22768;-88
2021/11/09 07:10:11;;;;;;;27.27;18.23;;;;;;;4.42;85.11;101576.30;1387956;94;21355;-90
2021/11/09 07:12:38;;;;;;;30.30;19.20;;;;;;;4.42;85.11;101576.30;1382830;95;21451;-87
2021/11/09 07:15:07;;;;;;;29.40;19.80;;;;;;;4.51;84.55;101585.00;1384681;95;21466;-89
2021/11/09 07:17:35;;;;;;;24.93;18.77;;;;;;;4.60;84.57;101592.84;1382184;94;21421;-87
2021/11/09 07:20:03;;;;;;;27.50;18.90;;;;;;;4.70;84.87;101588.82;1376247;95;21266;-87
2021/11/09 07:22:31;;;;;;;28.10;20.07;;;;;;;4.83;84.75;101600.80;1383163;93;22473;-87
2021/11/09 07:24:58;;;;;;;27.70;20.77;;;;;;;4.94;84.74;101595.83;1381719;94;21347;-88
2021/11/09 07:27:25;;;;;;;33.30;21.83;;;;;;;5.03;84.44;101606.30;1384055;94;21340;-88
2021/11/09 07:29:53;;;;;;;28.33;19.73;;;;;;;5.12;84.11;101606.26;1379690;94;23404;-87
2021/11/09 07:32:24;;;;;;;29.33;21.20;;;;;;;5.14;83.45;101609.66;1384677;93;22463;-85
2021/11/09 07:34:49;;;;;;;30.60;21.83;;;;;;;5.22;83.82;101610.09;1379838;93;21582;-86
2021/11/09 07:37:17;;;;;;;24.97;18.87;;;;;;;5.32;84.04;101612.60;1387989;95;21506;-85
2021/11/09 07:39:44;;;;;;;22.90;18.10;;;;;;;5.31;83.02;101621.39;1385307;93;21515;-85
2021/11/09 07:42:12;;;;;;;33.90;18.33;;;;;;;5.30;83.30;101626.73;1381376;94;21605;-85
2021/11/09 07:44:39;;;;;;;23.90;15.93;;;;;;;5.35;83.56;101627.30;1388052;93;22375;-86
2021/11/09 07:47:06;;;;;;;28.47;17.27;;;;;;;5.40;83.76;101623.50;1387265;93;21442;-86
2021/11/09 07:49:34;;;;;;;25.10;17.10;;;;;;;5.46;83.44;101626.25;1365728;95;21369;-86
2021/11/09 07:52:01;;;;;;;26.17;16.43;;;;;;;5.49;82.98;101630.48;1383566;95;21414;-87
2021/11/09 07:54:33;;;;;;;26.13;17.80;;;;;;;5.59;83.37;101634.31;1382965;94;22352;-86
2021/11/09 07:57:02;;;;;;;35.60;24.37;;;;;;;5.67;83.09;101634.73;1359199;95;21540;-86
2021/11/09 07:59:46;;;;;;;22.83;16.57;;;;;;;5.74;82.80;101636.06;1374660;94;22409;-86
2021/11/09 08:02:11;;;;;;;21.30;16.00;;;;;;;5.83;82.73;101642.10;1376705;94;21421;-87
2021/11/09 08:04:45;;;;;;;24.80;16.20;;;;;;;5.96;83.10;101638.36;1387426;94;21523;-86
2021/11/09 08:07:16;;;;;;;22.67;15.40;;;;;;;6.16;83.09;101641.59;1385917;94;21480;-87
2021/11/09 08:09:40;;;;;;;21.53;14.70;;;;;;;6.39;83.44;101646.81;1391353;93;21398;-87
2021/11/09 08:12:08;;;;;;;21.47;16.40;;;;;;;6.62;83.14;101650.26;1383531;94;21531;-87
2021/11/09 08:14:36;;;;;;;19.60;14.40;;;;;;;6.77;82.13;101650.64;1381716;94;22293;-87
2021/11/09 08:17:04;;;;;;;19.23;13.80;;;;;;;6.86;80.74;101658.44;1386710;93;23304;-89
2021/11/09 08:19:32;;;;;;;28.47;14.13;;;;;;;6.87;81.04;101654.02;1386191;94;21583;-89
2021/11/09 08:21:59;;;;;;;22.50;13.83;;;;;;;6.90;80.57;101661.25;1386755;94;21540;-88
2021/11/09 08:24:27;;;;;;;19.50;11.70;;;;;;;6.95;81.11;101659.19;1384984;95;21626;-88
2021/11/09 08:26:57;;;;;;;21.60;13.80;;;;;;;7.06;81.32;101659.84;1386585;94;21647;-88
2021/11/09 08:29:28;;;;;;;19.73;12.30;;;;;;;7.24;81.67;101656.06;1378703;93;21406;-89
2021/11/09 08:31:57;;;;;;;;;;;;;;;7.47;81.70;101670.89;1372458;95;22271;-89
2021/11/09 08:34:29;;;;;;;25.13;13.97;;;;;;;7.68;80.93;101664.72;1392197;94;20278;-89
2021/11/09 08:36:59;;;;;;;20.93;13.03;;;;;;;7.73;80.20;101687.67;1375200;93;21468;-84
2021/11/09 08:39:34;;;;;;;18.80;12.90;;;;;;;7.74;80.16;101692.02;1418370;92;21396;-86
2021/11/09 08:44:34;;;;;;;22.13;13.63;;;;;;;7.94;80.80;101686.78;1401436;92;22310;-85
2021/11/09 08:47:00;;;;;;;22.60;14.33;;;;;;;8.03;80.57;101693.24;1406938;92;22481;-84
2021/11/09 08:49:30;;;;;;;15.93;12.57;;;;;;;8.08;80.33;101699.88;1411066;92;22332;-84
2021/11/09 08:51:59;;;;;;;19.75;13.93;;;;;;;8.16;80.13;101713.05;1405502;93;22337;-84
2021/11/09 08:57:19;;;;;;;16.67;13.10;;;;;;;8.12;78.08;101731.70;1403849;92;21402;-85
2021/11/09 09:05:10;;;;;;;13.20;9.97;;;;;;;7.86;78.79;101741.78;1401212;92;23324;-86
2021/11/09 09:07:40;;;;;;;12.35;10.35;;;;;;;7.82;78.49;101749.48;1409073;91;22270;-86
2021/11/09 09:10:12;;;;;;;15.60;9.87;;;;;;;7.77;78.71;101754.20;1408241;92;21384;-86
2021/11/09 09:12:42;;;;;;;14.83;10.53;;;;;;;7.72;78.28;101758.94;1409962;93;21586;-87
2021/11/09 09:15:13;;;;;;;14.27;10.13;;;;;;;7.71;78.83;101759.42;1406373;92;21563;-86
2021/11/09 09:17:42;;;;;;;15.73;9.73;;;;;;;7.68;78.92;101751.23;1400581;92;21402;-87
2021/11/09 09:20:18;;;;;;;12.57;9.77;;;;;;;7.81;79.33;101762.30;1400658;93;21401;-84
2021/11/09 09:22:50;;;;;;;16.27;9.73;;;;;;;7.83;79.16;101767.02;1407194;92;21506;-85
2021/11/09 09:30:53;;;;;;;17.45;10.15;;;;;;;7.95;79.19;101767.55;1411095;92;21651;-84
2021/11/09 09:52:41;;;;;;;13.97;10.30;;;;;;;8.31;78.06;101800.39;1410008;91;21484;-85
2021/11/09 09:57:50;;;;;;;13.70;9.70;;;;;;;8.42;78.49;101801.90;1416544;92;21499;-85
2021/11/09 10:00:19;;;;;;;11.87;9.23;;;;;;;8.45;77.57;101802.17;1410715;91;21518;-85
2021/11/09 10:02:57;;;;;;;20.87;10.40;;;;;;;8.44;77.20;101815.00;1423738;92;21514;-85
2021/11/09 10:05:26;;;;;;;20.80;11.30;;;;;;;8.48;77.97;101812.05;1425168;91;21577;-85
2021/11/09 10:07:57;;;;;;;13.33;9.60;;;;;;;8.50;77.30;101816.76;1423509;91;21473;-84
2021/11/09 10:10:29;;;;;;;10.30;8.75;;;;;;;8.55;77.25;101815.99;1418592;91;21429;-84
2021/11/09 10:13:10;;;;;;;14.30;9.53;;;;;;;8.61;76.81;101821.82;1414401;92;21591;-85
2021/11/09 10:15:48;;;;;;;18.10;9.50;;;;;;;8.54;75.09;101818.72;1422835;92;21563;-84
2021/11/09 10:18:19;;;;;;;16.53;10.20;;;;;;;8.53;75.98;101835.03;1413181;92;21312;-84
2021/11/09 10:20:54;;;;;;;14.60;10.35;;;;;;;8.61;76.75;101823.14;1426160;90;22323;-85
2021/11/09 10:23:26;;;;;;;13.07;9.17;;;;;;;8.66;76.72;101819.25;1415167;91;22449;-85
2021/11/09 10:26:01;;;;;;;16.13;10.07;;;;;;;8.73;76.80;101827.60;1419981;91;22450;-85
2021/11/09 10:28:28;;;;;;;12.80;8.67;;;;;;;8.83;76.71;101828.67;1434732;91;22509;-85
2021/11/09 10:31:03;;;;;;;15.97;10.30;;;;;;;8.91;76.37;101829.48;1425609;91;22338;-85
2021/11/09 10:33:51;;;;;;;14.40;8.90;;;;;;;8.98;75.77;101836.06;1423109;91;21406;-85
2021/11/09 10:36:19;;;;;;;17.17;10.50;;;;;;;9.03;75.10;101832.17;1433030;91;22509;-85
2021/11/09 10:38:48;;;;;;;14.03;9.77;;;;;;;9.08;75.03;101830.52;1431341;91;21496;-85
2021/11/09 10:41:16;;;;;;;13.10;9.70;;;;;;;9.21;75.46;101833.19;1428171;91;21341;-85
2021/11/09 10:43:47;;;;;;;17.70;10.50;;;;;;;9.27;74.71;101835.41;1431715;91;21416;-84
2021/11/09 10:46:25;;;;;;;;;;;;;;;9.30;75.06;101829.91;1423725;91;21342;-85
2021/11/09 10:48:53;;;;;;;13.30;9.30;;;;;;;9.34;75.26;101834.50;1420520;91;20295;-85
2021/11/09 10:51:20;;;;;;;17.47;8.63;;;;;;;9.38;74.54;101836.84;1437164;90;21465;-85
2021/11/09 10:53:53;;;;;;;12.43;8.67;;;;;;;9.44;74.14;101835.09;1420964;91;21561;-86
2021/11/09 10:56:45;;;;;;;13.60;9.33;;;;;;;9.53;74.60;101843.34;1433481;91;21480;-85
2021/11/09 11:04:39;;;;;;;14.80;9.93;;;;;;;9.54;71.41;101841.06;1427351;91;20302;-85
2021/11/09 11:07:10;;;;;;;17.70;10.23;;;;;;;9.59;72.64;101838.95;1421211;91;21562;-86
2021/11/09 11:09:40;;;;;;;;;;;;;;;9.73;72.73;101844.60;1428862;91;22466;-86
2021/11/09 11:12:16;;;;;;;10.77;7.57;;;;;;;9.90;73.77;101842.94;1422692;91;20345;-86
2021/11/09 11:14:48;;;;;;;9.87;7.60;;;;;;;10.05;69.57;101845.80;1417477;92;22377;-86
2021/11/09 11:17:18;;;;;;;10.13;7.17;;;;;;;10.22;71.03;101843.27;1419771;92;21556;-86
2021/11/09 11:19:58;;;;;;;19.82;8.50;;;;;;;10.42;70.01;101843.67;1421205;91;21504;-86
2021/11/09 11:22:28;;;;;;;10.90;6.70;;;;;;;10.66;71.31;101845.82;1424457;91;21347;-86
2021/11/09 11:24:59;;;;;;;12.20;6.80;;;;;;;10.92;69.72;101845.69;1414621;91;21564;-86
2021/11/09 11:27:31;;;;;;;10.17;6.97;;;;;;;11.20;68.05;101851.07;1411757;92;21550;-86
2021/11/09 11:29:59;;;;;;;8.43;6.47;;;;;;;11.35;66.03;101849.05;1418358;92;22451;-86
2021/11/09 11:32:29;;;;;;;9.63;6.15;;;;;;;11.51;66.69;101846.91;1416771;92;21566;-86
2021/11/09 11:34:57;;;;;;;13.10;6.67;;;;;;;11.68;64.14;101846.89;1420371;92;22407;-86
2021/11/09 11:37:24;;;;;;;18.00;7.33;;;;;;;11.88;64.99;101850.66;1418667;92;21572;-86
2021/11/09 11:39:57;;;;;;;9.50;6.63;;;;;;;12.31;64.03;101855.19;1427555;91;21477;-86
2021/11/09 11:42:23;;;;;;;10.87;6.83;;;;;;;12.91;62.01;101856.44;1415399;91;21511;-86
2021/11/09 11:45:01;;;;;;;10.10;4.80;;;;;;;13.57;62.38;101852.70;1420099;91;21658;-86
2021/11/09 11:47:29;;;;;;;6.37;5.23;;;;;;;14.23;57.94;101843.76;1428537;91;21415;-86
2021/11/09 11:50:09;;;;;;;6.15;3.80;;;;;;;14.95;56.02;101849.73;1434042;91;21363;-85
2021/11/09 11:52:47;;;;;;;6.87;4.33;;;;;;;14.81;50.32;101854.50;1418742;92;21403;-86
2021/11/09 11:55:29;;;;;;;5.70;4.10;;;;;;;14.37;51.45;101855.84;1419577;91;21382;-86
2021/11/09 11:58:11;;;;;;;4.97;4.00;;;;;;;14.05;50.41;101858.22;1421261;91;21337;-86
2021/11/09 12:00:56;;;;;;;5.73;4.33;;;;;;;13.54;51.84;101864.44;1414878;91;21358;-87
2021/11/09 12:03:29;;;;;;;7.37;4.80;;;;;;;13.55;53.68;101860.80;1428047;90;21368;-87
2021/11/09 12:06:03;;;;;;;5.67;3.80;;;;;;;14.06;55.11;101863.89;1420765;91;22984;-86
2021/11/09 12:08:42;;;;;;;5.85;3.67;;;;;;;14.08;49.61;101859.77;1434974;90;22539;-86
2021/11/09 12:11:26;;;;;;;7.03;3.85;;;;;;;14.20;53.45;101854.69;1433405;90;21509;-85
2021/11/09 12:14:07;;;;;;;7.23;3.80;;;;;;;14.27;54.48;101853.64;1442455;90;22021;-86
2021/11/09 12:16:57;;;;;;;4.13;2.80;;;;;;;14.30;54.83;101859.55;1438102;90;21445;-87
2021/11/09 12:19:47;;;;;;;4.58;3.72;;;;;;;13.80;49.88;101862.19;1434286;90;21379;-86
2021/11/09 12:22:40;;;;;;;5.20;3.52;;;;;;;13.27;52.12;101870.31;1422066;91;22415;-86
2021/11/09 12:25:12;;;;;;;5.70;4.43;;;;;;;12.98;54.49;101870.92;1427127;91;22537;-86
2021/11/09 12:27:57;;;;;;;4.60;3.93;;;;;;;12.64;55.48;101877.69;1423945;91;21430;-87
2021/11/09 12:30:47;;;;;;;6.90;4.37;;;;;;;12.48;56.17;101877.23;1424852;91;21654;-85
2021/11/09 12:33:27;;;;;;;6.00;3.93;;;;;;;12.38;56.35;101876.31;1429001;91;22002;-83
2021/11/09 12:36:10;;;;;;;5.70;3.90;;;;;;;12.24;57.06;101877.91;1421297;91;21551;-86
2021/11/09 12:38:56;;;;;;;5.13;3.90;;;;;;;12.14;57.23;101880.44;1428775;90;21485;-86
2021/11/09 12:41:31;;;;;;;7.03;4.13;;;;;;;12.09;58.00;101884.80;1355706;90;21202;-86
2021/11/09 12:44:13;;;;;;;5.77;4.00;;;;;;;12.07;58.44;101889.86;1438599;89;21386;-86
2021/11/09 12:46:43;;;;;;;5.70;4.07;;;;;;;12.05;58.60;101894.44;1403113;90;21433;-86
2021/11/09 12:49:20;;;;;;;6.33;4.63;;;;;;;11.90;57.88;101893.84;1416931;90;21442;-86
2021/11/09 12:51:51;;;;;;;6.90;4.70;;;;;;;11.89;58.68;101894.82;1423233;90;21652;-86
2021/11/09 12:54:28;;;;;;;9.87;3.90;;;;;;;11.89;59.44;101902.78;1416981;90;21494;-87
2021/11/09 12:57:04;;;;;;;9.87;4.13;;;;;;;11.93;60.07;101902.40;1406559;90;22022;-88
2021/11/09 12:59:48;;;;;;;4.97;3.87;;;;;;;12.00;59.90;101901.45;1362101;90;21283;-86
2021/11/09 13:05:24;;;;;;;12.03;6.37;;;;;;;11.81;58.70;101906.47;1419657;90;21967;-85
2021/11/09 13:07:46;;;;;;;7.77;5.57;;;;;;;11.69;59.16;101907.79;1405450;90;21457;-85
2021/11/09 13:10:22;;;;;;;81.67;47.63;;;;;;;11.67;59.62;101900.42;1483240;90;21517;-84
2021/11/09 13:12:53;;;;;;;18.47;9.30;;;;;;;11.71;60.30;101905.88;1393622;90;22068;-87
2021/11/09 13:15:23;;;;;;;10.73;6.73;;;;;;;11.65;59.82;101904.16;1413633;90;21556;-86
2021/11/09 13:17:58;;;;;;;10.30;7.23;;;;;;;11.61;60.09;101904.04;1413434;90;21517;-86
2021/11/09 13:20:35;;;;;;;27.53;18.47;;;;;;;11.65;60.37;101906.34;1412253;90;21605;-86
2021/11/09 13:23:08;;;;;;;6.80;4.97;;;;;;;11.66;60.75;101908.03;1398928;90;21462;-86
2021/11/09 13:25:48;;;;;;;16.43;12.03;;;;;;;11.59;60.29;101910.77;1402844;92;21601;-86
2021/11/09 13:28:20;;;;;;;7.75;5.83;;;;;;;11.53;60.67;101908.11;1388930;93;21466;-87
2021/11/09 13:30:55;;;;;;;4.80;3.87;;;;;;;11.44;59.90;101918.09;1409316;90;21490;-87
2021/11/09 13:33:25;;;;;;;10.37;7.63;;;;;;;11.37;59.88;101914.73;1416414;90;21539;-87
2021/11/09 13:35:55;;;;;;;6.83;4.25;;;;;;;11.36;60.74;101918.32;1406997;90;21606;-86
2021/11/09 13:38:37;;;;;;;6.53;4.27;;;;;;;11.42;61.39;101921.37;1418807;90;21654;-88
2021/11/09 13:41:20;;;;;;;6.00;4.57;;;;;;;11.47;61.54;101917.02;1401653;92;21510;-87
2021/11/09 13:44:07;;;;;;;7.33;5.60;;;;;;;11.49;61.72;101917.77;1436490;92;21405;-85
2021/11/09 13:46:39;;;;;;;4.60;3.60;;;;;;;11.46;61.60;101931.25;1372848;93;21568;-86
2021/11/09 13:49:15;;;;;;;6.33;3.83;;;;;;;11.39;60.94;101931.34;1383214;92;21546;-86
2021/11/09 13:51:59;;;;;;;6.17;4.13;;;;;;;11.33;60.55;101933.12;1391595;92;21486;-87
2021/11/09 13:54:41;;;;;;;4.60;3.70;;;;;;;11.34;60.44;101935.69;1373233;93;21347;-87